Etusivu
METAR-TAF:

METAR-TAF

Lentoasemat :

Sofian lentoasema

Sofia, Bulgaria

Leveyspiiri: 42-39N, Pituuspiiri: 023-23E, korkeus merenpinnasta: 586 m

Tämänhetkinen sää

Tämä raportti tehtiin 20 minuuttia sitten, kello 01.00 UTC
Tuuli 4 kn kaakosta
Lämpötila 3°C
Kosteus 81%
Ilmanpaine 1023 hPa
Näkyvyys 10 km tai enemmän
ei pilviä alle 1500 m:ssä eikä cumulonimbus-pilviä

METAR: LBSF 090100Z 13004KT CAVOK 03/M00 Q1023 NOSIG

Aika: 04:20 (01:20 UTC)

Sääennuste

Tämä raportti tehtiin 2 tuntia ja 20 minuuttia sitten, kello 23.00 UTC
Ennuste voimassa 09. päivästä klo 00 UTC - 09. päivään klo 24 UTC
Tuuli 4 kn eri suunnista
Näkyvyys 10 km tai enemmän
Hajanaisia pilviä 4000 ft:n korkeudessa
Tulossa
09. päivästä klo 08 UTC - 09. päivään klo 10 UTC
Tuuli 10 kn idästä/kaakosta

TAF: LBSF 082300Z 0900/0924 VRB04KT 9999 SCT040 BECMG 0908/0910 11010KT

Säähavainnot ja -ennusteet yli 4000 lentoasemalta (METAR- ja TAF-raportit).

Käytössä olevat sääasemat on merkitty karttaan keltaisilla ja punaisilla pisteillä.

Aseta hiiri pisteen päälle nähdäksesi sääaseman nimen.

Klikkaa sitten nähdäksesi säähavainnot ja -ennusteet.

Kartan vaihtaminen: klikkaa mustalla rastilla varustettuja vihreitä pisteitä, niin voit zoomata sisään; viivalla varustettua vihreää pistettä, niin voit zoomata ulos tai vihreitä nuolia, niin pääset viereisille kartoille.


METAR-TAF: